Forside
METAR-TAF:

METAR-TAF

Lufthavne :

Mountain Home, Arkansas, USA

Breddekreds: 36-22-14N, længdekreds: 092-28-19W, højde: 282 m

Aktuelle vejr

Denne rapport blev lavet for 1 time og 1 minutter siden, kl. 07:53 UTC
Vind stille
Temperatur 3°C
Fugtighed 93%
Tryk 1023 hPa
Sigt: 16.1 km
skyfri

METAR: KBPK 220753Z AUTO 00000KT 10SM CLR 03/02 A3021 RMK AO2 SLP231 T00280017

Tid: 03:54 (08:54 UTC)

Vejrudsigter

Denne rapport blev lavet for 3 timer og 34 minutter siden, kl. 05:20 UTC
Foreløbig gælder fra 22 på 06 UTC til 23 på 06 UTC
Vind 3 kt fra varierende retninger
Sigt: 10 km
Nogle få skyer i en højde af 25000 ft
Fra 22 på 1600 UTC
Vind 5 kt fra syd
Sigt: 10 km
Spredte skyer i en højde af 25000 ft
Fra 23 på 0000 UTC
Vind 2 kt fra syd
Sigt: 10 km
Brudte skyer i en højde af 25000 ft

TAF: KBPK 220520Z 2206/2306 VRB03KT P6SM FEW250 FM221600 19005KT P6SM SCT250 FM230000 18002KT P6SM BKN250

Vejrobservationer og prognoser fra mere end 4000 lufthavne (METAR og TAF).

De gule og røde prikker repræsenterer de meteorologiske stationer.

Flyt musen over at se navnet på stationen.

Så klik over at se vejr observationer og prognoser.

At skifte det kort: Klik på de grønne knapper med et sort kors for at zoome ind; på den grønne knap med en bindestreg for at zoome ud; eller på de grønne pile for tilstødende kort.


METAR-TAF: